createdAt,value
2019-04-03T00:01:44.376Z,100417.88
2019-04-03T00:04:18.171Z,100409.89
2019-04-03T00:06:50.520Z,100409.89
2019-04-03T00:09:22.951Z,100417.12
2019-04-03T00:11:55.284Z,100408.36
2019-04-03T00:14:27.761Z,100412.38
2019-04-03T00:17:00.350Z,100412.38
2019-04-03T00:19:34.515Z,100412.69
2019-04-03T00:22:06.981Z,100409.22
2019-04-03T00:24:39.488Z,100414.22
2019-04-03T00:27:12.086Z,100406.95
2019-04-03T00:29:44.827Z,100409.78
2019-04-03T00:32:17.226Z,100410.33
2019-04-03T00:34:49.896Z,100410.33
2019-04-03T00:37:23.269Z,100401.80
2019-04-03T00:39:56.108Z,100407.94
2019-04-03T00:42:28.556Z,100406.03
2019-04-03T00:45:00.917Z,100406.03
2019-04-03T00:47:33.401Z,100406.65
2019-04-03T00:50:07.998Z,100411.73
2019-04-03T00:52:40.407Z,100410.52
2019-04-03T00:55:13.187Z,100402.05
2019-04-03T00:57:45.752Z,100405.50
2019-04-03T01:00:18.216Z,100408.91
2019-04-03T01:02:50.576Z,100402.28
2019-04-03T01:05:22.961Z,100398.58
2019-04-03T01:07:55.546Z,100404.34
2019-04-03T01:10:29.654Z,100396.98
2019-04-03T01:13:02.362Z,100392.91
2019-04-03T01:15:35.597Z,100378.92
2019-04-03T01:18:08.006Z,100383.30
2019-04-03T01:20:40.622Z,100384.28
2019-04-03T01:23:13.231Z,100379.05
2019-04-03T01:25:46.191Z,100383.91
2019-04-03T01:28:18.758Z,100379.54
2019-04-03T01:30:51.236Z,100382.91
2019-04-03T01:33:24.676Z,100377.36
2019-04-03T01:35:57.281Z,100377.12
2019-04-03T01:38:29.726Z,100373.20
2019-04-03T01:41:02.257Z,100374.14
2019-04-03T01:43:35.011Z,100368.91
2019-04-03T01:46:07.446Z,100367.43
2019-04-03T01:48:39.753Z,100364.12
2019-04-03T01:51:12.426Z,100367.23
2019-04-03T01:53:46.217Z,100364.83
2019-04-03T01:56:18.715Z,100365.05
2019-04-03T01:58:51.301Z,100368.80
2019-04-03T02:01:23.963Z,100366.03
2019-04-03T02:03:57.601Z,100360.36
2019-04-03T02:06:30.186Z,100360.97
2019-04-03T02:09:02.651Z,100357.21
2019-04-03T02:11:36.160Z,100351.75
2019-04-03T02:14:08.511Z,100348.20
2019-04-03T02:16:41.012Z,100347.51
2019-04-03T02:19:13.897Z,100344.12
2019-04-03T02:21:46.236Z,100340.36
2019-04-03T02:24:19.106Z,100345.67
2019-04-03T02:26:51.719Z,100341.43
2019-04-03T02:29:24.006Z,100336.81
2019-04-03T02:31:56.631Z,100336.95
2019-04-03T02:34:29.147Z,100340.86
2019-04-03T02:37:01.591Z,100334.73
2019-04-03T02:39:33.943Z,100344.78
2019-04-03T02:42:08.854Z,100336.17
2019-04-03T02:44:40.619Z,100337.19
2019-04-03T02:47:13.199Z,100335.48
2019-04-03T02:49:45.753Z,100335.64
2019-04-03T02:52:18.108Z,100337.84
2019-04-03T02:54:50.519Z,100336.25
2019-04-03T02:57:22.961Z,100338.20
2019-04-03T02:59:57.862Z,100330.16
2019-04-03T03:02:29.693Z,100332.53
2019-04-03T03:05:02.648Z,100337.75
2019-04-03T03:07:36.298Z,100338.36
2019-04-03T03:10:09.642Z,100335.50
2019-04-03T03:12:42.373Z,100335.63
2019-04-03T03:15:15.028Z,100336.16
2019-04-03T03:17:47.572Z,100335.78
2019-04-03T03:20:23.873Z,100324.23
2019-04-03T03:22:56.485Z,100326.67
2019-04-03T03:25:32.110Z,100324.67
2019-04-03T03:28:03.106Z,100323.89
2019-04-03T03:30:44.290Z,100327.03
2019-04-03T03:33:26.994Z,100321.79
2019-04-03T03:35:47.198Z,100324.49
2019-04-03T03:38:18.313Z,100326.71
2019-04-03T03:40:51.229Z,100323.93
2019-04-03T03:43:23.801Z,100326.76
2019-04-03T03:45:56.298Z,100327.95
2019-04-03T03:48:28.928Z,100318.70
2019-04-03T03:51:01.379Z,100315.25
2019-04-03T03:53:34.478Z,100317.41
2019-04-03T03:56:07.341Z,100319.30
2019-04-03T03:58:40.301Z,100312.45
2019-04-03T04:01:13.062Z,100311.30
2019-04-03T04:03:45.986Z,100310.63
2019-04-03T04:06:18.258Z,100307.64
2019-04-03T04:08:50.977Z,100307.52
2019-04-03T04:11:23.507Z,100303.97
2019-04-03T04:13:55.800Z,100311.53
2019-04-03T04:16:28.271Z,100308.98
2019-04-03T04:19:00.946Z,100310.22
2019-04-03T04:21:33.647Z,100311.31
2019-04-03T04:24:05.993Z,100315.39
2019-04-03T04:26:38.373Z,100310.05
2019-04-03T04:29:11.513Z,100311.06
2019-04-03T04:31:44.457Z,100316.27
2019-04-03T04:34:18.907Z,100316.72
2019-04-03T04:36:51.231Z,100319.01
2019-04-03T04:39:23.402Z,100318.67
2019-04-03T04:41:55.860Z,100313.97
2019-04-03T04:44:28.270Z,100314.42
2019-04-03T04:47:00.717Z,100312.61
2019-04-03T04:49:33.002Z,100312.50
2019-04-03T04:52:05.719Z,100309.77
2019-04-03T04:54:38.194Z,100316.07
2019-04-03T04:57:10.711Z,100323.12
2019-04-03T04:59:45.190Z,100321.93
2019-04-03T05:02:17.846Z,100316.86
2019-04-03T05:04:51.257Z,100321.17
2019-04-03T05:07:23.941Z,100314.60
2019-04-03T05:09:58.010Z,100315.20
2019-04-03T05:12:30.426Z,100318.23
2019-04-03T05:15:03.044Z,100321.59
2019-04-03T05:17:35.791Z,100317.25
2019-04-03T05:20:08.501Z,100314.75
2019-04-03T05:22:41.126Z,100311.63
2019-04-03T05:25:13.941Z,100312.94
2019-04-03T05:27:46.571Z,100309.62
2019-04-03T05:30:29.324Z,100306.76
2019-04-03T05:33:01.976Z,100312.38
2019-04-03T05:35:37.416Z,100308.99
2019-04-03T05:38:08.969Z,100309.81
2019-04-03T05:40:41.560Z,100303.98
2019-04-03T05:43:14.228Z,100303.66
2019-04-03T05:45:46.671Z,100302.17
2019-04-03T05:48:19.375Z,100303.31
2019-04-03T05:50:52.311Z,100299.33
2019-04-03T05:53:24.896Z,100297.26
2019-04-03T05:55:57.476Z,100296.72
2019-04-03T05:58:30.129Z,100294.30
2019-04-03T06:01:06.209Z,100296.58
2019-04-03T06:03:42.195Z,100304.13
2019-04-03T06:06:13.995Z,100301.22
2019-04-03T06:08:45.881Z,100300.12
2019-04-03T06:11:20.654Z,100300.01
2019-04-03T06:13:52.466Z,100297.19
2019-04-03T06:16:25.245Z,100299.90
2019-04-03T06:18:59.123Z,100290.79
2019-04-03T06:21:32.681Z,100292.02
2019-04-03T06:24:05.139Z,100286.25
2019-04-03T06:26:38.510Z,100288.55
2019-04-03T06:29:11.256Z,100282.94
2019-04-03T06:31:43.981Z,100283.67
2019-04-03T06:34:16.301Z,100284.10
2019-04-03T06:36:50.762Z,100276.66
2019-04-03T06:39:24.089Z,100269.11
2019-04-03T06:41:57.014Z,100263.45
2019-04-03T06:44:29.560Z,100263.05
2019-04-03T06:47:02.054Z,100261.83
2019-04-03T06:49:34.533Z,100259.12
2019-04-03T06:52:07.282Z,100262.28
2019-04-03T06:54:39.471Z,100257.70
2019-04-03T06:57:13.896Z,100262.28
2019-04-03T06:59:48.751Z,100254.58
2019-04-03T07:02:21.012Z,100256.23
2019-04-03T07:04:53.526Z,100254.09
2019-04-03T07:07:33.001Z,100251.53
2019-04-03T07:09:59.812Z,100249.00
2019-04-03T07:12:32.270Z,100248.88
2019-04-03T07:17:38.157Z,100248.27
2019-04-03T07:20:15.364Z,100241.92
2019-04-03T07:22:46.885Z,100246.80
2019-04-03T07:25:19.148Z,100242.26
2019-04-03T07:27:52.346Z,100242.83
2019-04-03T07:30:24.573Z,100233.28
2019-04-03T07:32:58.287Z,100234.83
2019-04-03T07:35:32.501Z,100234.63
2019-04-03T07:38:04.775Z,100232.88
2019-04-03T07:40:37.619Z,100232.91
2019-04-03T07:43:10.106Z,100228.59
2019-04-03T07:45:43.862Z,100227.16
2019-04-03T07:48:16.160Z,100240.83
2019-04-03T07:50:48.538Z,100234.49
2019-04-03T07:53:20.895Z,100237.98
2019-04-03T07:55:55.112Z,100229.09
2019-04-03T07:58:27.107Z,100225.83
2019-04-03T08:00:59.447Z,100230.24
2019-04-03T08:03:31.697Z,100229.52
2019-04-03T08:06:04.446Z,100230.33
2019-04-03T08:08:37.107Z,100233.80
2019-04-03T08:11:10.426Z,100227.99
2019-04-03T08:13:43.862Z,100226.77
2019-04-03T08:16:16.696Z,100227.59
2019-04-03T08:18:51.418Z,100230.44
2019-04-03T08:21:24.044Z,100229.47
2019-04-03T08:23:56.202Z,100228.03
2019-04-03T08:26:28.381Z,100221.30
2019-04-03T08:29:01.741Z,100227.70
2019-04-03T08:31:34.441Z,100221.92
2019-04-03T08:34:15.489Z,100219.87
2019-04-03T08:36:40.701Z,100219.55
2019-04-03T08:39:13.692Z,100223.81
2019-04-03T08:41:47.571Z,100225.87
2019-04-03T08:44:20.310Z,100215.75
2019-04-03T08:46:52.998Z,100215.41
2019-04-03T08:49:26.323Z,100213.14
2019-04-03T08:51:59.360Z,100217.78
2019-04-03T08:54:31.562Z,100208.86
2019-04-03T08:57:04.398Z,100204.55
2019-04-03T08:59:37.321Z,100208.31
2019-04-03T09:02:12.723Z,100194.30
2019-04-03T09:04:43.881Z,100204.37
2019-04-03T09:07:16.537Z,100200.61
2019-04-03T09:09:48.784Z,100197.66
2019-04-03T09:12:21.232Z,100196.63
2019-04-03T09:14:53.371Z,100193.82
2019-04-03T09:17:25.807Z,100182.48
2019-04-03T09:19:58.331Z,100186.05
2019-04-03T09:22:32.243Z,100171.86
2019-04-03T09:25:05.781Z,100178.88
2019-04-03T09:27:39.847Z,100174.42
2019-04-03T09:30:15.713Z,100169.20
2019-04-03T09:32:47.764Z,100168.25
2019-04-03T09:35:20.141Z,100152.42
2019-04-03T09:37:52.281Z,100152.42
2019-04-03T09:40:25.797Z,100150.30
2019-04-03T09:42:58.321Z,100150.36
2019-04-03T09:45:31.418Z,100142.72
2019-04-03T09:48:05.609Z,100142.36
2019-04-03T09:50:37.056Z,100143.75
2019-04-03T09:53:09.176Z,100141.34
2019-04-03T09:55:41.556Z,100135.75
2019-04-03T09:58:14.155Z,100131.64
2019-04-03T10:00:46.350Z,100128.06
2019-04-03T10:03:18.841Z,100127.86
2019-04-03T10:05:51.236Z,100115.84
2019-04-03T10:08:23.752Z,100111.37
2019-04-03T10:10:55.996Z,100124.25
2019-04-03T10:13:28.376Z,100117.89
2019-04-03T10:16:03.231Z,100110.31
2019-04-03T10:18:34.516Z,100105.39
2019-04-03T10:21:06.858Z,100109.25
2019-04-03T10:23:39.156Z,100104.48
2019-04-03T10:26:11.337Z,100092.23
2019-04-03T10:28:46.863Z,100093.41
2019-04-03T10:31:17.589Z,100091.55
2019-04-03T10:33:49.916Z,100091.37
2019-04-03T10:36:22.126Z,100080.60
2019-04-03T10:38:54.216Z,100077.33
2019-04-03T10:41:28.670Z,100076.23
2019-04-03T10:44:00.636Z,100068.37
2019-04-03T10:46:33.240Z,100064.46
2019-04-03T10:49:05.516Z,100057.91
2019-04-03T10:51:40.901Z,100054.58
2019-04-03T10:54:11.956Z,100055.91
2019-04-03T10:56:44.396Z,100057.36
2019-04-03T10:59:18.475Z,100042.96
2019-04-03T11:01:52.336Z,100043.00
2019-04-03T11:04:24.638Z,100049.11
2019-04-03T11:06:56.968Z,100044.78
2019-04-03T11:09:29.156Z,100050.08
2019-04-03T11:12:01.471Z,100037.67
2019-04-03T11:14:34.156Z,100032.85
2019-04-03T11:17:06.296Z,100039.77
2019-04-03T11:19:38.771Z,100022.75
2019-04-03T11:22:10.816Z,100021.56
2019-04-03T11:24:43.322Z,100025.85
2019-04-03T11:27:15.551Z,100025.01
2019-04-03T11:29:49.764Z,100016.66
2019-04-03T11:32:23.189Z,100020.17
2019-04-03T11:34:56.330Z,100019.33
2019-04-03T11:37:30.145Z,100014.50
2019-04-03T11:40:05.445Z,100016.16
2019-04-03T11:42:37.481Z,100021.69
2019-04-03T11:45:10.881Z,100017.17
2019-04-03T11:47:45.287Z,100022.50
2019-04-03T11:50:18.036Z,100027.02
2019-04-03T11:52:51.761Z,100011.41
2019-04-03T11:55:24.494Z,100013.30
2019-04-03T11:57:56.866Z,100008.14
2019-04-03T12:00:32.052Z,100007.52
2019-04-03T12:03:05.602Z,100005.66
2019-04-03T12:05:38.321Z,100003.69
2019-04-03T12:08:12.563Z,99995.84
2019-04-03T12:10:45.267Z,99996.48
2019-04-03T12:13:19.452Z,99988.69
2019-04-03T12:15:53.504Z,99984.11
2019-04-03T12:18:25.508Z,99977.97
2019-04-03T12:20:58.157Z,99974.50
2019-04-03T12:23:30.591Z,99987.49
2019-04-03T12:26:03.802Z,99966.30
2019-04-03T12:28:36.271Z,99978.15
2019-04-03T12:31:08.918Z,99971.48
2019-04-03T12:33:52.005Z,99975.31
2019-04-03T12:36:15.058Z,99982.66
2019-04-03T12:38:47.733Z,99958.80
2019-04-03T12:41:19.961Z,99972.33
2019-04-03T12:43:52.789Z,99968.45
2019-04-03T12:46:37.869Z,99956.91
2019-04-03T12:49:11.419Z,99957.88
2019-04-03T12:51:43.776Z,99945.67
2019-04-03T12:54:19.905Z,99952.94
2019-04-03T12:56:50.378Z,99956.63
2019-04-03T12:59:22.858Z,99952.48
2019-04-03T13:01:55.184Z,99948.45
2019-04-03T13:04:30.260Z,99952.97
2019-04-03T13:07:04.489Z,99945.80
2019-04-03T13:09:37.980Z,99942.72
2019-04-03T13:12:09.923Z,99943.54
2019-04-03T13:14:43.261Z,99934.75
2019-04-03T13:17:15.816Z,99926.84
2019-04-03T13:19:48.336Z,99936.22
2019-04-03T13:22:20.564Z,99933.46
2019-04-03T13:24:53.252Z,99943.02
2019-04-03T13:27:25.717Z,99939.86
2019-04-03T13:29:58.144Z,99940.72
2019-04-03T13:32:30.546Z,99946.48
2019-04-03T13:35:04.891Z,99934.23
2019-04-03T13:37:37.602Z,99931.61
2019-04-03T13:40:10.027Z,99934.94
2019-04-03T13:42:43.897Z,99929.74
2019-04-03T13:45:16.107Z,99923.70
2019-04-03T13:47:48.257Z,99930.19
2019-04-03T13:50:22.544Z,99922.58
2019-04-03T13:52:54.682Z,99917.87
2019-04-03T13:55:28.835Z,99919.59
2019-04-03T13:58:01.181Z,99914.75
2019-04-03T14:00:33.984Z,99911.54
2019-04-03T14:03:06.317Z,99905.21
2019-04-03T14:05:38.436Z,99903.53
2019-04-03T14:08:12.877Z,99903.44
2019-04-03T14:10:45.084Z,99898.75
2019-04-03T14:13:17.789Z,99902.05
2019-04-03T14:15:50.718Z,99895.25
2019-04-03T14:18:23.157Z,99883.25
2019-04-03T14:20:56.262Z,99880.41
2019-04-03T14:23:29.575Z,99891.81
2019-04-03T14:26:05.592Z,99892.63
2019-04-03T14:28:37.423Z,99879.42
2019-04-03T14:31:10.517Z,99890.13
2019-04-03T14:33:46.267Z,99886.13
2019-04-03T14:36:19.160Z,99876.27
2019-04-03T14:38:51.715Z,99882.48
2019-04-03T14:41:24.118Z,99879.95
2019-04-03T14:43:56.502Z,99884.65
2019-04-03T14:46:30.606Z,99892.48
2019-04-03T14:49:04.354Z,99878.31
2019-04-03T14:51:37.025Z,99869.16
2019-04-03T14:54:09.183Z,99881.48
2019-04-03T14:56:41.520Z,99873.48
2019-04-03T14:59:14.475Z,99878.31
2019-04-03T15:01:47.577Z,99876.61
2019-04-03T15:04:19.854Z,99872.31
2019-04-03T15:07:02.138Z,99867.77
2019-04-03T15:09:27.937Z,99868.76
2019-04-03T15:12:01.677Z,99868.27
2019-04-03T15:14:34.668Z,99868.43
2019-04-03T15:17:07.131Z,99861.28
2019-04-03T15:19:39.458Z,99853.28
2019-04-03T15:22:12.111Z,99860.42
2019-04-03T15:24:44.656Z,99861.22
2019-04-03T15:27:18.204Z,99861.59
2019-04-03T15:29:50.617Z,99860.88
2019-04-03T15:32:23.396Z,99857.70
2019-04-03T15:34:58.736Z,99850.88
2019-04-03T15:37:31.311Z,99863.84
2019-04-03T15:40:04.757Z,99859.34
2019-04-03T15:42:40.289Z,99847.53
2019-04-03T15:45:11.754Z,99842.17
2019-04-03T15:47:46.782Z,99848.83
2019-04-03T15:50:19.195Z,99842.81
2019-04-03T15:52:52.233Z,99826.16
2019-04-03T15:55:25.403Z,99833.13
2019-04-03T15:57:58.437Z,99834.41
2019-04-03T16:00:33.676Z,99829.80
2019-04-03T16:03:06.090Z,99841.21
2019-04-03T16:05:38.634Z,99838.70
2019-04-03T16:08:12.444Z,99832.19
2019-04-03T16:10:45.711Z,99844.63
2019-04-03T16:13:20.858Z,99841.46
2019-04-03T16:15:56.354Z,99840.92
2019-04-03T16:18:27.264Z,99841.37
2019-04-03T16:20:59.537Z,99832.18
2019-04-03T16:23:34.253Z,99841.81
2019-04-03T16:26:06.712Z,99839.58
2019-04-03T16:28:39.526Z,99836.05
2019-04-03T16:31:12.767Z,99832.68
2019-04-03T16:33:45.641Z,99835.63
2019-04-03T16:36:18.670Z,99833.03
2019-04-03T16:38:51.688Z,99829.49
2019-04-03T16:41:24.652Z,99826.92
2019-04-03T16:43:57.146Z,99833.00
2019-04-03T16:46:29.862Z,99834.56
2019-04-03T16:49:02.401Z,99824.70
2019-04-03T16:51:35.763Z,99825.95
2019-04-03T16:54:10.954Z,99826.06
2019-04-03T16:56:42.667Z,99815.20
2019-04-03T16:59:15.431Z,99825.23
2019-04-03T17:01:48.496Z,99806.28
2019-04-03T17:04:26.090Z,99815.16
2019-04-03T17:06:55.690Z,99816.05
2019-04-03T17:09:28.235Z,99817.81
2019-04-03T17:12:01.096Z,99805.41
2019-04-03T17:14:34.198Z,99813.68
2019-04-03T17:17:12.442Z,99807.84
2019-04-03T17:19:41.426Z,99810.08
2019-04-03T17:22:14.254Z,99809.31
2019-04-03T17:24:49.524Z,99813.56
2019-04-03T17:27:21.514Z,99819.59
2019-04-03T17:29:54.357Z,99823.34
2019-04-03T17:32:28.969Z,99823.91
2019-04-03T17:35:01.391Z,99827.44
2019-04-03T17:37:33.851Z,99828.34
2019-04-03T17:40:11.134Z,99826.49
2019-04-03T17:42:43.946Z,99832.03
2019-04-03T17:45:16.527Z,99834.55
2019-04-03T17:47:49.724Z,99839.03
2019-04-03T17:50:25.386Z,99833.87
2019-04-03T17:52:58.011Z,99836.09
2019-04-03T17:55:30.411Z,99834.81
2019-04-03T17:58:02.914Z,99842.51
2019-04-03T18:00:35.572Z,99841.19
2019-04-03T18:03:08.161Z,99846.89
2019-04-03T18:05:40.461Z,99839.72
2019-04-03T18:08:12.931Z,99845.49
2019-04-03T18:10:45.601Z,99845.71
2019-04-03T18:13:18.091Z,99841.26
2019-04-03T18:15:50.427Z,99839.52
2019-04-03T18:18:23.226Z,99844.12
2019-04-03T18:20:55.996Z,99839.70
2019-04-03T18:23:28.631Z,99841.87
2019-04-03T18:26:01.071Z,99838.36
2019-04-03T18:28:33.941Z,99841.37
2019-04-03T18:31:07.871Z,99832.80
2019-04-03T18:33:40.876Z,99841.07
2019-04-03T18:36:13.441Z,99838.01
2019-04-03T18:38:46.066Z,99842.73
2019-04-03T18:41:18.816Z,99847.35
2019-04-03T18:43:54.146Z,99840.32
2019-04-03T18:46:31.920Z,99839.76
2019-04-03T18:49:01.582Z,99844.91
2019-04-03T18:51:36.820Z,99849.91
2019-04-03T18:54:09.749Z,99850.39
2019-04-03T18:56:45.611Z,99845.10
2019-04-03T18:59:18.037Z,99844.14
2019-04-03T19:01:50.886Z,99838.48
2019-04-03T19:04:26.366Z,99840.37
2019-04-03T19:07:00.831Z,99846.91
2019-04-03T19:09:33.026Z,99838.52
2019-04-03T19:12:08.743Z,99834.70
2019-04-03T19:14:40.741Z,99840.55
2019-04-03T19:17:13.631Z,99836.78
2019-04-03T19:19:46.311Z,99834.67
2019-04-03T19:22:19.067Z,99844.20
2019-04-03T19:24:51.922Z,99840.30
2019-04-03T19:27:24.351Z,99841.76
2019-04-03T19:29:57.336Z,99844.67
2019-04-03T19:32:29.918Z,99852.46
2019-04-03T19:35:02.583Z,99846.08
2019-04-03T19:37:35.592Z,99841.62
2019-04-03T19:40:09.888Z,99850.05
2019-04-03T19:42:43.912Z,99844.52
2019-04-03T19:45:16.618Z,99845.66
2019-04-03T19:47:49.266Z,99847.98
2019-04-03T19:50:22.061Z,99845.94
2019-04-03T19:52:54.901Z,99846.19
2019-04-03T19:55:27.401Z,99850.23
2019-04-03T19:57:59.936Z,99844.95
2019-04-03T20:00:34.677Z,99843.20
2019-04-03T20:03:06.376Z,99844.77
2019-04-03T20:05:39.202Z,99835.41
2019-04-03T20:08:12.101Z,99844.66
2019-04-03T20:10:44.399Z,99843.34
2019-04-03T20:13:17.041Z,99849.41
2019-04-03T20:15:49.311Z,99843.75
2019-04-03T20:18:21.681Z,99838.08
2019-04-03T20:20:54.456Z,99841.36
2019-04-03T20:23:29.952Z,99839.40
2019-04-03T20:26:01.217Z,99850.38
2019-04-03T20:28:33.736Z,99838.86
2019-04-03T20:31:06.153Z,99846.34
2019-04-03T20:33:42.080Z,99845.73
2019-04-03T20:36:16.557Z,99844.89
2019-04-03T20:38:48.686Z,99845.05
2019-04-03T20:41:21.092Z,99852.88
2019-04-03T20:43:53.513Z,99845.56
2019-04-03T20:46:25.871Z,99841.50
2019-04-03T20:48:58.746Z,99849.41
2019-04-03T20:51:32.802Z,99835.98
2019-04-03T20:54:05.566Z,99842.23
2019-04-03T20:56:37.943Z,99834.11
2019-04-03T20:59:12.038Z,99844.30
2019-04-03T21:01:44.858Z,99842.50
2019-04-03T21:04:17.144Z,99843.24
2019-04-03T21:06:51.518Z,99842.77
2019-04-03T21:09:23.626Z,99838.81
2019-04-03T21:11:56.361Z,99843.16
2019-04-03T21:14:29.051Z,99839.81
2019-04-03T21:17:01.782Z,99843.64
2019-04-03T21:19:34.456Z,99842.45
2019-04-03T21:22:07.333Z,99842.44
2019-04-03T21:24:39.861Z,99843.31
2019-04-03T21:27:12.541Z,99835.17
2019-04-03T21:29:45.318Z,99838.78
2019-04-03T21:32:17.881Z,99831.59
2019-04-03T21:34:50.819Z,99831.39
2019-04-03T21:37:23.451Z,99827.53
2019-04-03T21:39:56.016Z,99828.53
2019-04-03T21:42:28.296Z,99830.08
2019-04-03T21:45:02.755Z,99829.73
2019-04-03T21:47:35.441Z,99825.66
2019-04-03T21:50:08.061Z,99834.55
2019-04-03T21:52:40.451Z,99837.80
2019-04-03T21:55:13.001Z,99837.44
2019-04-03T21:57:45.436Z,99842.84
2019-04-03T22:00:24.141Z,99846.09
2019-04-03T22:02:57.221Z,99844.41
2019-04-03T22:05:29.901Z,99850.90
2019-04-03T22:08:02.191Z,99839.64
2019-04-03T22:10:35.075Z,99847.42
2019-04-03T22:13:08.301Z,99838.55
2019-04-03T22:15:40.886Z,99846.45
2019-04-03T22:18:13.601Z,99839.74
2019-04-03T22:20:46.396Z,99841.56
2019-04-03T22:23:18.761Z,99836.89
2019-04-03T22:25:51.177Z,99833.66
2019-04-03T22:28:23.745Z,99842.97
2019-04-03T22:30:56.101Z,99830.99
2019-04-03T22:33:28.565Z,99834.94
2019-04-03T22:36:01.266Z,99841.39
2019-04-03T22:38:37.188Z,99843.05
2019-04-03T22:41:12.126Z,99844.70
2019-04-03T22:43:44.114Z,99843.97
2019-04-03T22:46:18.241Z,99850.91
2019-04-03T22:48:50.655Z,99845.27
2019-04-03T22:51:22.936Z,99851.37
2019-04-03T22:53:55.421Z,99849.91
2019-04-03T22:56:28.671Z,99852.67
2019-04-03T22:59:01.367Z,99843.91
2019-04-03T23:01:33.696Z,99841.97
2019-04-03T23:04:06.245Z,99840.30
2019-04-03T23:06:38.941Z,99832.00
2019-04-03T23:09:11.520Z,99835.53
2019-04-03T23:11:44.216Z,99831.67
2019-04-03T23:14:16.831Z,99830.80
2019-04-03T23:16:49.321Z,99837.88
2019-04-03T23:19:21.771Z,99836.42
2019-04-03T23:21:54.840Z,99832.97
2019-04-03T23:24:28.886Z,99829.12
2019-04-03T23:27:02.676Z,99824.33
2019-04-03T23:29:36.582Z,99822.57
2019-04-03T23:32:09.432Z,99817.08
2019-04-03T23:34:41.841Z,99813.86
2019-04-03T23:37:14.400Z,99813.72
2019-04-03T23:39:47.036Z,99813.16
2019-04-03T23:42:19.658Z,99816.14
2019-04-03T23:44:52.071Z,99814.70
2019-04-03T23:47:24.602Z,99811.47
2019-04-03T23:49:57.180Z,99809.16
2019-04-03T23:52:30.791Z,99806.39
2019-04-03T23:55:04.810Z,99808.79
2019-04-03T23:57:39.586Z,99801.00
